Time;durP1;ratioP1;P1;durP2;ratioP2;P2;SDS_P1;SDS_P2;PMS_P1;PMS_P2;Temp;Humidity;BMP_temperature;BMP_pressure;BME280_temperature;BME280_humidity;BME280_pressure;Samples;Min_cycle;Max_cycle;Signal;HPM_P1;HPM_P2
2022/05/05 00:01:17;;;;;;;21.10;16.60;;;;;;;9.19;63.02;98844.05;220760;1273;22562;-71
2022/05/05 00:06:20;;;;;;;20.70;16.10;;;;;;;9.12;62.83;98846.12;220380;1273;443694;-72
2022/05/05 00:17:19;;;;;;;20.40;15.70;;;;;;;8.96;63.14;98840.11;220824;1273;25495;-70
2022/05/05 00:22:34;;;;;;;20.70;14.00;;;;;;;8.89;63.22;98837.48;220597;1273;22698;-70
2022/05/05 00:27:52;;;;;;;22.10;15.50;;;;;;;8.85;63.81;98845.25;220468;1277;25255;-72
2022/05/05 00:33:24;;;;;;;21.60;15.70;;;;;;;8.82;63.96;98839.34;221091;1274;22529;-71
2022/05/05 00:38:51;;;;;;;22.30;15.50;;;;;;;8.79;63.98;98834.38;220676;1274;25378;-72
2022/05/05 00:44:20;;;;;;;27.20;17.30;;;;;;;8.75;64.08;98833.59;220847;1274;22525;-71
2022/05/05 00:49:40;;;;;;;23.50;18.10;;;;;;;8.72;64.47;98830.09;220550;1277;25092;-70
2022/05/05 00:55:25;;;;;;;24.90;18.30;;;;;;;8.70;64.81;98829.94;220711;1274;22576;-71
2022/05/05 01:00:34;;;;;;;25.20;18.10;;;;;;;8.66;64.68;98835.45;220879;1273;26017;-71
2022/05/05 01:05:41;;;;;;;24.90;18.20;;;;;;;8.60;65.05;98837.89;220840;1276;22702;-71
2022/05/05 01:10:46;;;;;;;22.20;16.50;;;;;;;8.50;64.88;98834.83;220679;1277;22696;-71
2022/05/05 01:15:59;;;;;;;22.90;16.10;;;;;;;8.39;65.24;98833.34;220838;1274;25329;-71
2022/05/05 01:21:14;;;;;;;21.40;15.30;;;;;;;8.28;65.24;98834.97;220686;1274;23179;-71
2022/05/05 01:31:51;;;;;;;17.60;14.20;;;;;;;8.11;65.54;98828.66;219203;1274;22554;-69
2022/05/05 01:36:53;;;;;;;20.50;14.40;;;;;;;8.06;65.66;98827.98;220340;1276;22680;-71
2022/05/05 01:41:56;;;;;;;18.90;14.40;;;;;;;8.03;65.99;98832.58;219738;1274;24224;-68
2022/05/05 01:47:25;;;;;;;16.80;13.50;;;;;;;7.98;65.95;98836.16;219507;1274;22557;-69
2022/05/05 01:53:04;;;;;;;18.30;13.50;;;;;;;7.90;65.85;98827.00;220524;1274;24230;-69
2022/05/05 01:58:08;;;;;;;21.70;15.40;;;;;;;7.85;66.63;98828.77;219279;1274;22772;-70
2022/05/05 02:03:37;;;;;;;23.20;16.10;;;;;;;7.78;66.60;98826.80;219071;1274;22697;-69
2022/05/05 02:08:55;;;;;;;;;;;;;;;;;;;;;
2022/05/05 02:14:13;;;;;;;21.10;14.10;;;;;;;7.64;67.02;98832.50;220041;1273;25424;-70
2022/05/05 02:19:21;;;;;;;18.10;13.30;;;;;;;7.60;67.15;98839.66;221022;1273;22589;-69
2022/05/05 02:24:27;;;;;;;19.70;13.80;;;;;;;7.56;67.21;98849.25;218936;1274;22546;-69
2022/05/05 02:29:42;;;;;;;18.60;14.20;;;;;;;7.51;67.43;98846.85;219324;1273;22536;-68
2022/05/05 02:34:53;;;;;;;19.80;14.10;;;;;;;7.44;67.40;98845.58;220402;1274;22813;-68
2022/05/05 02:40:07;;;;;;;17.00;14.00;;;;;;;7.40;67.70;98848.44;219468;1274;22560;-70
2022/05/05 02:45:21;;;;;;;18.60;14.80;;;;;;;7.37;67.75;98854.73;220142;1273;22557;-69
2022/05/05 02:50:24;;;;;;;;;;;;;;;7.33;67.93;98858.66;219947;1274;23317;-69
2022/05/05 02:55:56;;;;;;;18.90;13.80;;;;;;;7.28;68.08;98858.98;219158;1275;22577;-69
2022/05/05 03:01:23;;;;;;;19.50;14.00;;;;;;;7.24;68.34;98860.90;219088;1274;25332;-68
2022/05/05 03:06:29;;;;;;;21.70;15.60;;;;;;;7.19;68.16;98862.70;220497;1274;23777;-69
2022/05/05 03:11:37;;;;;;;22.90;14.70;;;;;;;7.15;68.63;98856.08;219194;1274;25260;-69
2022/05/05 03:17:01;;;;;;;18.60;14.00;;;;;;;7.13;68.67;98851.77;219375;1275;25412;-69
2022/05/05 03:22:06;;;;;;;18.10;14.00;;;;;;;7.12;68.92;98855.86;219128;1275;24146;-69
2022/05/05 03:27:12;;;;;;;16.40;13.40;;;;;;;7.14;69.53;98857.36;219442;1274;25282;-69
2022/05/05 03:32:28;;;;;;;22.10;14.90;;;;;;;7.17;69.29;98861.58;219078;1273;22576;-69
2022/05/05 03:37:50;;;;;;;21.00;14.10;;;;;;;7.21;69.40;98862.33;219502;1276;22574;-69
2022/05/05 03:42:56;;;;;;;18.40;14.10;;;;;;;7.28;69.69;98864.91;219285;1275;23052;-69
2022/05/05 03:48:23;;;;;;;19.20;14.80;;;;;;;7.38;69.61;98874.19;219440;1274;22569;-69
2022/05/05 03:53:38;;;;;;;18.60;15.10;;;;;;;7.47;69.57;98871.80;218883;1276;24281;-70
2022/05/05 03:58:52;;;;;;;20.50;16.10;;;;;;;7.52;69.64;98874.64;219141;1275;25384;-69
2022/05/05 04:04:25;;;;;;;21.80;14.80;;;;;;;7.55;69.50;98878.73;219099;1276;22616;-70
2022/05/05 04:09:48;;;;;;;19.10;15.10;;;;;;;7.62;69.45;98887.12;220262;1275;25471;-70
2022/05/05 04:15:03;;;;;;;20.90;15.40;;;;;;;7.75;69.86;98884.98;219613;1274;22561;-69
2022/05/05 04:20:12;;;;;;;24.90;14.80;;;;;;;7.93;69.67;98884.66;219794;1274;22697;-69
2022/05/05 04:25:36;;;;;;;21.60;16.10;;;;;;;8.15;69.97;98889.65;219498;1274;25314;-69
2022/05/05 04:30:43;;;;;;;22.80;17.00;;;;;;;8.36;69.65;98890.73;219093;1274;25577;-69
2022/05/05 04:35:55;;;;;;;22.70;17.70;;;;;;;8.53;69.47;98897.98;219472;1276;22557;-69
2022/05/05 04:41:00;;;;;;;23.30;17.10;;;;;;;8.72;69.33;98901.02;219660;1274;22956;-69
2022/05/05 04:46:06;;;;;;;22.10;16.90;;;;;;;8.91;69.25;98909.77;219658;1275;22711;-69
2022/05/05 04:51:11;;;;;;;22.90;17.70;;;;;;;9.10;69.15;98907.98;219315;1274;22542;-70
2022/05/05 04:56:20;;;;;;;22.50;18.00;;;;;;;9.29;69.00;98909.69;219363;1274;24179;-69
2022/05/05 05:01:22;;;;;;;22.00;17.80;;;;;;;9.49;69.00;98910.27;220964;1277;23927;-69
2022/05/05 05:06:28;;;;;;;23.40;18.90;;;;;;;9.75;68.97;98916.23;219575;1274;22542;-70
2022/05/05 05:11:43;;;;;;;26.20;18.70;;;;;;;10.02;68.84;98914.73;219358;1275;22551;-69
2022/05/05 05:16:55;;;;;;;22.90;17.40;;;;;;;10.30;68.78;98912.98;220710;1275;22710;-69
2022/05/05 05:22:06;;;;;;;22.90;18.00;;;;;;;10.60;68.93;98913.08;219533;1274;25248;-69
2022/05/05 05:27:11;;;;;;;26.20;19.00;;;;;;;10.92;69.02;98916.03;219349;1275;25288;-70
2022/05/05 05:32:13;;;;;;;24.80;19.00;;;;;;;11.26;69.04;98916.13;220901;1274;22614;-70
2022/05/05 05:37:19;;;;;;;24.90;18.70;;;;;;;11.60;69.19;98919.93;219426;1275;24744;-69
2022/05/05 05:42:40;;;;;;;22.00;18.00;;;;;;;11.95;68.72;98918.61;219400;1274;27035;-69
2022/05/05 05:48:08;;;;;;;22.90;18.40;;;;;;;12.33;68.48;98923.52;219139;1274;22787;-69
2022/05/05 05:53:13;;;;;;;23.00;18.30;;;;;;;12.62;67.98;98923.15;222524;1273;26364;-68
2022/05/05 05:58:23;;;;;;;19.70;15.60;;;;;;;12.84;67.47;98921.00;220442;1274;24194;-70
2022/05/05 06:08:47;;;;;;;15.10;12.70;;;;;;;13.33;66.95;98929.80;219074;1275;23057;-66
2022/05/05 06:13:59;;;;;;;14.40;12.00;;;;;;;13.66;66.66;98936.30;219057;1272;25193;-70
2022/05/05 06:19:13;;;;;;;14.70;10.80;;;;;;;14.08;66.42;98936.71;219324;1274;22579;-69
2022/05/05 06:24:21;;;;;;;14.60;10.30;;;;;;;14.44;65.52;98941.45;219036;1274;23830;-70
2022/05/05 06:29:32;;;;;;;12.20;10.70;;;;;;;14.74;64.98;98948.45;219217;1274;24680;-68
2022/05/05 06:34:42;;;;;;;15.00;10.20;;;;;;;15.07;64.56;98949.65;218882;1275;22571;-69
2022/05/05 06:39:51;;;;;;;13.50;10.70;;;;;;;15.37;63.54;98948.63;219287;1274;22574;-69
2022/05/05 06:45:09;;;;;;;11.50;8.80;;;;;;;15.57;62.86;98946.83;219302;1274;22562;-71
2022/05/05 06:50:21;;;;;;;8.90;8.00;;;;;;;15.81;62.20;98945.55;219332;1274;22558;-69
2022/05/05 06:55:46;;;;;;;9.40;7.40;;;;;;;16.07;62.11;98945.80;219830;1274;22714;-69
2022/05/05 07:06:10;;;;;;;8.50;6.70;;;;;;;16.36;60.43;98956.43;221206;1274;22633;-69
2022/05/05 07:11:26;;;;;;;6.10;5.50;;;;;;;16.50;59.94;98953.76;221938;1274;24222;-69
2022/05/05 07:16:43;;;;;;;8.40;6.90;;;;;;;16.53;59.11;98954.36;220389;1274;22572;-71
2022/05/05 07:22:08;;;;;;;8.20;6.30;;;;;;;16.66;59.03;98953.26;219618;1274;22564;-71
2022/05/05 07:27:19;;;;;;;7.20;6.40;;;;;;;16.90;58.79;98954.09;218781;1274;24399;-70
2022/05/05 07:32:28;;;;;;;8.00;6.70;;;;;;;17.07;58.48;98946.54;221079;1274;22553;-71
2022/05/05 07:37:41;;;;;;;6.90;6.30;;;;;;;17.42;58.48;98955.00;221408;1274;25424;-71
2022/05/05 07:42:47;;;;;;;10.70;8.00;;;;;;;17.69;57.56;98954.77;221423;1275;25117;-71
2022/05/05 07:47:49;;;;;;;10.90;8.90;;;;;;;17.86;57.15;98952.89;221338;1274;22609;-70
2022/05/05 07:52:53;;;;;;;10.20;8.00;;;;;;;18.11;57.27;98956.02;221299;1274;22613;-70
2022/05/05 07:57:57;;;;;;;9.60;7.20;;;;;;;18.34;56.91;98955.41;221157;1274;25699;-70
2022/05/05 08:02:59;;;;;;;7.30;6.10;;;;;;;18.58;56.34;98956.68;222957;1274;22710;-71
2022/05/05 08:08:02;;;;;;;5.10;4.50;;;;;;;18.81;55.86;98956.19;221527;1273;22590;-67
2022/05/05 08:13:04;;;;;;;5.30;3.80;;;;;;;19.08;54.50;98959.14;219268;1274;22915;-71
2022/05/05 08:18:07;;;;;;;5.10;3.80;;;;;;;19.19;53.42;98957.86;219114;1273;24232;-70
2022/05/05 08:23:09;;;;;;;5.20;3.20;;;;;;;19.39;52.91;98962.89;219057;1274;24227;-70
2022/05/05 08:28:29;;;;;;;3.60;3.00;;;;;;;19.55;51.96;98965.91;219375;1274;25232;-70
2022/05/05 08:33:32;;;;;;;2.40;1.90;;;;;;;19.53;49.79;98968.81;221153;1274;22688;-70
2022/05/05 08:38:34;;;;;;;3.30;3.00;;;;;;;19.54;49.96;98965.25;221130;1274;25392;-71
2022/05/05 08:43:36;;;;;;;4.30;3.40;;;;;;;19.63;50.22;98961.55;221025;1274;25347;-71
2022/05/05 08:49:03;;;;;;;5.00;3.50;;;;;;;19.79;49.54;98964.13;221258;1273;22534;-71
2022/05/05 08:54:07;;;;;;;3.50;3.00;;;;;;;19.75;49.18;98962.90;221556;1274;22698;-71
2022/05/05 08:59:11;;;;;;;3.70;2.30;;;;;;;19.78;48.53;98965.10;221242;1273;25410;-69
2022/05/05 09:04:13;;;;;;;4.30;2.60;;;;;;;19.78;47.97;98962.92;221248;1274;23819;-70
2022/05/05 09:09:24;;;;;;;3.80;2.50;;;;;;;19.87;48.59;98964.59;221086;1274;24871;-71
2022/05/05 09:14:53;;;;;;;2.80;2.40;;;;;;;20.07;48.90;98964.77;221722;1274;26929;-72
2022/05/05 09:19:57;;;;;;;2.60;2.40;;;;;;;20.28;48.16;98964.61;221245;1274;22666;-70
2022/05/05 09:25:02;;;;;;;2.40;2.20;;;;;;;20.38;47.65;98967.43;221206;1274;22556;-71
2022/05/05 09:30:20;;;;;;;2.30;2.10;;;;;;;20.52;47.53;98970.20;220842;1273;26426;-70
2022/05/05 09:35:23;;;;;;;4.00;2.50;;;;;;;20.69;47.02;98959.27;221043;1274;22740;-70
2022/05/05 09:40:28;;;;;;;2.60;2.00;;;;;;;20.83;47.20;98956.04;221141;1274;24239;-71
2022/05/05 09:45:33;;;;;;;2.80;2.10;;;;;;;21.08;47.08;98959.02;221100;1274;23240;-71
2022/05/05 09:50:37;;;;;;;2.60;2.20;;;;;;;21.18;46.37;98961.50;221335;1274;22695;-70
2022/05/05 10:01:21;;;;;;;3.90;2.60;;;;;;;21.48;46.24;98951.74;221230;1273;22584;-70
2022/05/05 10:06:43;;;;;;;3.40;3.10;;;;;;;21.54;44.88;98950.70;222498;1274;22552;-70
2022/05/05 10:11:49;;;;;;;3.30;2.80;;;;;;;21.51;45.47;98944.18;221184;1274;22562;-70
2022/05/05 10:16:55;;;;;;;3.50;2.50;;;;;;;21.79;46.01;98946.23;221299;1273;23151;-70
2022/05/05 10:22:18;;;;;;;6.50;5.70;;;;;;;22.13;45.43;98941.89;221463;1274;25945;-71
2022/05/05 10:27:20;;;;;;;5.60;3.10;;;;;;;22.28;44.34;98939.75;221331;1274;25419;-70
2022/05/05 10:32:41;;;;;;;2.40;2.20;;;;;;;22.53;44.00;98936.06;219660;1274;22543;-71
2022/05/05 10:37:47;;;;;;;4.20;3.00;;;;;;;22.79;43.72;98933.75;221321;1274;22682;-70
2022/05/05 10:43:03;;;;;;;3.00;2.80;;;;;;;23.07;43.10;98930.66;221289;1273;24889;-71
2022/05/05 10:48:06;;;;;;;3.40;2.60;;;;;;;23.29;42.82;98929.19;221219;1274;25512;-71
2022/05/05 10:53:24;;;;;;;6.20;5.40;;;;;;;23.43;41.74;98924.68;223647;1273;25664;-71
2022/05/05 10:59:04;;;;;;;4.50;3.20;;;;;;;23.35;41.33;98921.22;221631;1273;22923;-71
2022/05/05 11:04:28;;;;;;;3.10;2.90;;;;;;;23.40;41.43;98917.76;221622;1274;22479;-73
2022/05/05 11:09:32;;;;;;;3.60;3.20;;;;;;;23.59;41.02;98914.71;222744;1273;22993;-70
2022/05/05 11:25:20;;;;;;;5.70;4.40;;;;;;;23.78;40.33;98909.01;221328;1274;22684;-71
2022/05/05 11:30:22;;;;;;;6.40;4.10;;;;;;;23.54;39.59;98908.65;221030;1273;23113;-71
2022/05/05 11:35:33;;;;;;;3.40;3.10;;;;;;;23.01;39.55;98907.38;221644;1273;24302;-70
2022/05/05 11:40:36;;;;;;;3.20;2.90;;;;;;;22.86;40.12;98902.09;221987;1273;24707;-68
2022/05/05 11:45:38;;;;;;;3.80;3.50;;;;;;;23.04;40.27;98900.71;219341;1273;22535;-70
2022/05/05 11:50:46;;;;;;;13.10;7.70;;;;;;;23.13;39.78;98896.80;219015;1273;22562;-69
2022/05/05 11:55:52;;;;;;;4.70;2.70;;;;;;;23.36;39.50;98897.11;219082;1274;25439;-70
2022/05/05 12:06:41;;;;;;;2.80;2.50;;;;;;;23.71;38.69;98888.15;215744;1274;5911650;-70
2022/05/05 12:11:46;;;;;;;5.50;3.70;;;;;;;23.53;38.46;98883.81;219015;1273;24480;-71
2022/05/05 12:17:09;;;;;;;3.00;2.80;;;;;;;23.63;38.57;98880.24;221290;1274;22713;-67
2022/05/05 12:22:37;;;;;;;4.50;3.90;;;;;;;23.63;38.18;98873.98;219169;1273;23090;-69
2022/05/05 12:28:05;;;;;;;4.20;2.80;;;;;;;23.70;38.74;98876.42;222408;1273;25114;-70
2022/05/05 12:33:11;;;;;;;3.40;3.00;;;;;;;23.92;38.79;98877.67;219179;1274;22565;-70
2022/05/05 12:38:15;;;;;;;4.20;3.50;;;;;;;24.19;38.90;98873.09;221712;1273;23073;-70
2022/05/05 12:43:24;;;;;;;5.30;4.30;;;;;;;24.37;38.08;98864.63;218804;1274;24221;-70
2022/05/05 12:48:27;;;;;;;4.40;4.00;;;;;;;24.32;37.48;98862.02;221367;1273;22595;-70
2022/05/05 13:04:15;;;;;;;3.70;3.40;;;;;;;24.62;37.78;98836.43;221068;1274;24453;-71
2022/05/05 13:09:18;;;;;;;3.80;3.40;;;;;;;24.58;36.82;98835.08;221123;1274;22554;-70
2022/05/05 13:14:24;;;;;;;5.10;4.10;;;;;;;24.30;36.78;98834.94;222030;1272;22574;-71
2022/05/05 13:19:29;;;;;;;6.40;5.30;;;;;;;24.13;37.47;98830.35;221516;1274;22564;-71
2022/05/05 13:24:31;;;;;;;3.60;3.30;;;;;;;24.26;37.80;98826.08;222498;1273;24183;-70
2022/05/05 13:29:34;;;;;;;4.20;3.80;;;;;;;24.53;37.57;98819.25;220988;1274;23028;-70
2022/05/05 13:34:36;;;;;;;6.10;5.50;;;;;;;24.76;36.65;98822.52;218578;1274;22536;-70
2022/05/05 13:39:38;;;;;;;4.90;4.00;;;;;;;24.79;37.19;98824.20;221124;1274;22855;-70
2022/05/05 13:44:40;;;;;;;4.40;4.00;;;;;;;24.61;36.50;98832.74;221250;1273;22557;-70
2022/05/05 13:49:45;;;;;;;16.50;6.00;;;;;;;24.07;36.85;98838.95;220277;1273;25258;-70
2022/05/05 13:54:50;;;;;;;6.60;4.60;;;;;;;23.49;38.46;98847.98;221304;1273;22537;-71
2022/05/05 13:59:55;;;;;;;7.70;3.80;;;;;;;22.87;40.06;98853.27;221195;1276;23122;-70
2022/05/05 14:05:13;;;;;;;3.80;3.50;;;;;;;22.43;41.31;98860.71;220805;1274;24311;-70
2022/05/05 14:15:38;;;;;;;3.20;2.70;;;;;;;21.28;42.94;98867.16;219023;1274;25606;-69
2022/05/05 14:20:40;;;;;;;3.90;3.50;;;;;;;20.66;44.04;98863.79;220798;1273;22633;-70
2022/05/05 14:25:43;;;;;;;2.70;2.10;;;;;;;20.08;45.39;98862.14;219210;1274;22621;-69
2022/05/05 14:30:46;;;;;;;4.70;2.60;;;;;;;19.63;46.16;98858.08;219590;1274;26014;-69
2022/05/05 14:35:48;;;;;;;2.80;2.50;;;;;;;19.23;47.20;98871.48;219428;1273;23930;-69
2022/05/05 14:41:04;;;;;;;3.00;2.60;;;;;;;18.88;48.58;98889.88;220019;1274;25385;-69
2022/05/05 14:46:28;;;;;;;2.90;2.50;;;;;;;18.56;49.33;98910.48;219418;1273;25105;-70
2022/05/05 14:51:32;;;;;;;2.40;2.20;;;;;;;18.31;49.86;98930.84;222247;1274;22951;-68
2022/05/05 14:56:34;;;;;;;3.50;2.70;;;;;;;17.99;51.12;98941.97;219447;1274;22534;-69
2022/05/05 15:01:36;;;;;;;4.00;2.90;;;;;;;17.60;52.00;98940.89;220031;1274;24274;-70
2022/05/05 15:06:47;;;;;;;3.40;2.50;;;;;;;17.29;52.91;98924.57;219575;1273;22551;-70
2022/05/05 15:11:50;;;;;;;4.10;2.70;;;;;;;17.02;54.00;98913.04;219843;1274;24153;-70
2022/05/05 15:16:58;;;;;;;4.40;3.70;;;;;;;16.72;54.97;98917.18;219642;1274;25328;-70
2022/05/05 15:22:03;;;;;;;3.90;3.30;;;;;;;16.42;56.75;98914.42;220119;1274;22528;-69
2022/05/05 15:27:06;;;;;;;4.80;3.50;;;;;;;16.06;58.02;98904.30;220023;1274;25453;-70
2022/05/05 15:32:08;;;;;;;4.50;3.90;;;;;;;15.73;58.94;98900.64;219633;1274;25373;-70
2022/05/05 15:37:10;;;;;;;5.00;3.90;;;;;;;15.45;59.90;98891.54;219667;1274;25934;-70
2022/05/05 15:42:12;;;;;;;5.20;4.40;;;;;;;15.28;60.95;98909.48;220041;1274;22474;-69
2022/05/05 15:47:15;;;;;;;5.60;5.00;;;;;;;15.14;61.88;98922.38;219948;1274;24541;-69
2022/05/05 15:52:18;;;;;;;5.30;4.10;;;;;;;15.01;62.77;98927.20;219628;1274;22716;-69
2022/05/05 15:57:21;;;;;;;5.20;4.70;;;;;;;14.90;63.96;98966.25;220110;1274;24221;-70
2022/05/05 16:02:24;;;;;;;7.30;4.90;;;;;;;14.73;66.06;99000.67;220320;1274;25289;-71
2022/05/05 16:07:31;;;;;;;5.20;3.30;;;;;;;14.38;66.67;98993.02;221483;1274;22610;-71
2022/05/05 16:12:33;;;;;;;3.50;3.10;;;;;;;13.66;67.00;98965.20;221395;1274;24413;-69
2022/05/05 16:17:42;;;;;;;4.10;2.60;;;;;;;13.08;68.30;98950.96;219996;1274;23305;-70
2022/05/05 16:22:57;;;;;;;2.30;2.20;;;;;;;12.72;69.46;98953.98;221091;1272;24944;-71
2022/05/05 16:33:36;;;;;;;4.00;3.60;;;;;;;12.54;71.75;98985.10;220982;1274;23681;-72
2022/05/05 16:38:38;;;;;;;;;;;;;;;12.54;72.63;98984.73;220978;1274;22543;-72
2022/05/05 16:43:46;;;;;;;4.00;3.60;;;;;;;12.56;73.33;98985.02;221215;1274;22604;-72
2022/05/05 16:48:51;;;;;;;4.80;3.80;;;;;;;12.61;73.55;98964.88;221480;1273;25347;-71
2022/05/05 16:54:00;;;;;;;5.50;4.10;;;;;;;12.68;73.94;98953.09;221191;1274;22554;-71
2022/05/05 16:59:18;;;;;;;5.90;4.40;;;;;;;12.77;74.29;98966.90;221137;1273;22580;-72
2022/05/05 17:04:24;;;;;;;4.80;3.50;;;;;;;12.86;74.38;98972.04;221088;1273;22580;-72
2022/05/05 17:09:27;;;;;;;4.40;3.50;;;;;;;12.95;74.30;98966.38;221071;1274;22627;-71
2022/05/05 17:15:03;;;;;;;7.90;5.90;;;;;;;13.01;74.45;98967.94;221232;1274;22706;-72
2022/05/05 17:20:31;;;;;;;8.20;6.30;;;;;;;13.09;74.87;98979.13;220805;1273;22560;-72
2022/05/05 17:25:34;;;;;;;7.50;5.40;;;;;;;13.13;74.90;98992.23;220975;1273;22538;-71
2022/05/05 17:30:36;;;;;;;8.40;6.10;;;;;;;13.14;75.25;98999.90;221088;1274;23206;-72
2022/05/05 17:35:39;;;;;;;6.20;4.70;;;;;;;13.09;75.58;98992.31;220881;1273;22700;-71
2022/05/05 17:40:42;;;;;;;8.20;6.20;;;;;;;12.99;75.86;98991.20;221253;1273;22535;-72
2022/05/05 17:51:22;;;;;;;7.90;5.90;;;;;;;12.80;76.81;99011.30;221143;1273;24115;-72
2022/05/05 17:56:32;;;;;;;9.80;7.40;;;;;;;12.77;77.08;99044.00;221090;1273;22525;-71
2022/05/05 18:01:34;;;;;;;9.30;7.10;;;;;;;12.77;77.96;99044.64;220893;1276;22759;-71
2022/05/05 18:06:37;;;;;;;14.20;8.90;;;;;;;12.79;78.31;99037.36;220879;1276;22755;-71
2022/05/05 18:11:40;;;;;;;10.80;9.10;;;;;;;12.80;78.55;99030.07;221067;1274;22610;-71
2022/05/05 18:16:43;;;;;;;9.60;8.50;;;;;;;12.81;78.51;99039.09;221072;1274;23798;-71
2022/05/05 18:21:50;;;;;;;14.00;9.90;;;;;;;12.86;78.71;99048.58;221174;1274;22538;-71
2022/05/05 18:26:53;;;;;;;12.60;10.10;;;;;;;12.89;78.91;99044.38;221674;1276;24243;-71
2022/05/05 18:32:05;;;;;;;15.10;10.80;;;;;;;12.91;79.25;99044.34;221124;1274;25392;-72
2022/05/05 18:37:10;;;;;;;15.00;11.30;;;;;;;12.90;79.53;99024.02;221170;1274;23881;-72
2022/05/05 18:42:13;;;;;;;12.50;9.40;;;;;;;12.85;79.58;99012.50;221140;1274;22574;-71
2022/05/05 18:47:16;;;;;;;16.70;12.20;;;;;;;12.76;79.99;99028.96;221183;1274;22685;-72
2022/05/05 18:52:23;;;;;;;19.40;13.50;;;;;;;12.71;80.48;99055.01;221527;1274;22557;-70
2022/05/05 18:57:31;;;;;;;14.00;12.10;;;;;;;12.69;80.61;99069.50;221202;1274;22538;-71
2022/05/05 19:02:34;;;;;;;14.60;13.00;;;;;;;12.66;80.65;99074.28;220962;1274;22528;-71
2022/05/05 19:07:40;;;;;;;17.50;14.60;;;;;;;12.64;80.57;99058.73;221121;1274;22558;-71
2022/05/05 19:12:42;;;;;;;19.60;16.60;;;;;;;12.63;80.74;99069.81;221116;1274;22566;-71
2022/05/05 19:17:47;;;;;;;19.40;16.00;;;;;;;12.63;80.70;99073.16;221181;1274;22556;-71
2022/05/05 19:22:57;;;;;;;18.00;15.20;;;;;;;12.63;81.23;99080.78;221032;1274;22543;-71
2022/05/05 19:28:23;;;;;;;18.00;14.80;;;;;;;12.63;81.44;99086.86;221112;1274;26019;-71
2022/05/05 19:33:28;;;;;;;21.30;15.80;;;;;;;12.63;81.32;99080.52;221047;1274;22585;-72
2022/05/05 19:38:30;;;;;;;17.90;15.90;;;;;;;12.63;81.40;99081.97;221588;1274;25458;-71
2022/05/05 19:43:34;;;;;;;20.80;15.50;;;;;;;12.64;81.60;99079.85;221398;1274;22612;-73
2022/05/05 20:01:16;;;;;;;26.20;19.00;;;;;;;12.75;81.95;99072.78;221287;1274;22696;-71
2022/05/05 20:11:57;;;;;;;23.40;18.70;;;;;;;12.82;81.97;99078.90;220921;1273;22694;-72
2022/05/05 20:16:59;;;;;;;25.50;19.60;;;;;;;12.85;82.15;99073.48;220918;1276;24140;-71
2022/05/05 20:22:02;;;;;;;24.80;19.40;;;;;;;12.87;82.18;99079.04;220904;1275;22712;-71
2022/05/05 20:27:06;;;;;;;27.40;20.50;;;;;;;12.88;82.36;99081.45;220982;1274;22543;-72
2022/05/05 20:32:13;;;;;;;24.00;20.30;;;;;;;12.89;82.31;99080.23;220995;1276;24386;-72
2022/05/05 20:37:23;;;;;;;25.50;20.50;;;;;;;12.86;82.33;99080.19;220827;1275;22590;-71
2022/05/05 20:42:25;;;;;;;23.10;19.80;;;;;;;12.85;82.60;99093.16;221091;1276;23131;-72
2022/05/05 20:47:28;;;;;;;20.50;17.80;;;;;;;12.83;82.53;99096.73;220654;1277;22630;-71
2022/05/05 20:52:31;;;;;;;22.50;18.70;;;;;;;12.78;82.62;99104.56;220955;1277;23515;-72
2022/05/05 20:57:41;;;;;;;25.60;19.60;;;;;;;12.73;82.61;99113.13;221058;1274;25328;-71
2022/05/05 21:02:47;;;;;;;25.80;20.00;;;;;;;12.64;82.47;99103.45;221057;1275;25253;-71
2022/05/05 21:08:11;;;;;;;26.60;21.10;;;;;;;12.58;82.74;99104.10;221428;1274;23335;-72
2022/05/05 21:13:47;;;;;;;22.70;18.00;;;;;;;12.49;82.79;99109.05;221385;1274;24295;-72
2022/05/05 21:18:54;;;;;;;24.40;18.90;;;;;;;12.42;83.03;99121.04;221139;1274;22563;-72
2022/05/05 21:29:26;;;;;;;20.20;16.80;;;;;;;12.32;83.27;99141.06;221349;1275;22582;-72
2022/05/05 21:34:39;;;;;;;21.80;16.90;;;;;;;12.29;83.32;99145.73;221278;1274;25524;-72
2022/05/05 21:39:41;;;;;;;20.30;15.90;;;;;;;12.28;83.62;99151.48;221331;1274;24266;-72
2022/05/05 21:44:49;;;;;;;21.20;17.20;;;;;;;12.25;83.67;99144.98;221285;1275;24232;-71
2022/05/05 21:49:52;;;;;;;19.60;16.50;;;;;;;12.22;83.79;99134.89;220834;1276;22547;-71
2022/05/05 21:54:54;;;;;;;22.00;17.60;;;;;;;12.18;83.92;99135.58;220956;1276;22603;-71
2022/05/05 21:59:57;;;;;;;24.00;18.40;;;;;;;12.15;83.75;99132.17;221467;1274;22557;-71
2022/05/05 22:05:04;;;;;;;21.50;18.00;;;;;;;12.12;83.91;99130.39;221271;1274;22717;-71
2022/05/05 22:10:06;;;;;;;21.00;18.00;;;;;;;12.08;84.03;99131.40;221426;1274;25236;-72
2022/05/05 22:15:09;;;;;;;20.70;17.90;;;;;;;12.08;84.22;99120.84;221161;1275;22545;-73
2022/05/05 22:20:11;;;;;;;20.80;17.40;;;;;;;12.04;84.11;99120.39;221322;1275;22652;-72
2022/05/05 22:25:14;;;;;;;23.00;18.00;;;;;;;12.02;84.26;99119.02;221288;1274;25225;-72
2022/05/05 22:30:16;;;;;;;20.20;16.80;;;;;;;11.98;84.49;99114.73;221206;1277;22595;-72
2022/05/05 22:35:31;;;;;;;20.60;16.50;;;;;;;11.95;84.59;99111.48;221230;1274;23075;-71
2022/05/05 22:46:06;;;;;;;;;;;;;;;11.96;84.96;99114.12;221307;1275;22560;-71
2022/05/05 22:51:32;;;;;;;19.20;16.40;;;;;;;11.94;85.21;99108.98;221358;1274;23140;-71
2022/05/05 22:56:38;;;;;;;20.30;17.40;;;;;;;11.93;85.07;99114.35;221633;1273;24243;-72
2022/05/05 23:02:20;;;;;;;22.30;18.30;;;;;;;11.92;85.22;99120.36;221189;1274;22534;-72
2022/05/05 23:07:23;;;;;;;23.90;19.10;;;;;;;11.89;85.32;99116.00;221382;1275;22574;-71
2022/05/05 23:12:26;;;;;;;20.40;17.90;;;;;;;11.87;85.27;99111.52;221431;1274;23144;-70
2022/05/05 23:17:28;;;;;;;25.20;18.30;;;;;;;11.84;85.45;99112.27;220906;1275;22555;-71
2022/05/05 23:22:31;;;;;;;23.70;19.20;;;;;;;11.77;85.48;99111.05;220796;1278;22630;-72
2022/05/05 23:27:37;;;;;;;24.50;19.20;;;;;;;11.73;85.51;99112.06;221006;1274;24228;-72
2022/05/05 23:32:40;;;;;;;26.80;21.30;;;;;;;11.65;85.64;99111.67;220976;1275;24314;-72
2022/05/05 23:38:25;;;;;;;25.00;19.70;;;;;;;11.59;85.72;99107.95;220989;1275;23754;-72
2022/05/05 23:43:57;;;;;;;22.70;19.10;;;;;;;11.48;85.64;99106.08;221132;1275;22550;-71
2022/05/05 23:49:32;;;;;;;26.30;20.50;;;;;;;11.41;85.92;99101.87;221253;1274;24416;-71
2022/05/05 23:54:38;;;;;;;26.80;20.00;;;;;;;11.35;85.99;99106.70;221044;1276;22578;-72
2022/05/05 23:59:55;;;;;;;24.40;19.30;;;;;;;11.29;86.11;99115.25;221398;1274;26390;-71
